createdAt,value
2022-10-21T00:01:42.827Z,22.25
2022-10-21T00:04:14.816Z,24.33
2022-10-21T00:06:46.919Z,25.02
2022-10-21T00:09:16.123Z,20.80
2022-10-21T00:11:45.192Z,28.02
2022-10-21T00:14:14.310Z,20.65
2022-10-21T00:16:43.747Z,15.55
2022-10-21T00:19:12.826Z,22.88
2022-10-21T00:21:42.500Z,20.63
2022-10-21T00:24:13.048Z,21.95
2022-10-21T00:26:42.126Z,21.98
2022-10-21T00:29:11.669Z,22.23
2022-10-21T00:31:40.854Z,30.75
2022-10-21T00:34:10.220Z,24.75
2022-10-21T00:36:39.450Z,25.25
2022-10-21T00:39:08.460Z,31.52
2022-10-21T00:41:39.173Z,20.92
2022-10-21T00:44:12.600Z,20.23
2022-10-21T00:46:47.482Z,25.02
2022-10-21T00:49:19.573Z,21.67
2022-10-21T00:51:54.255Z,28.10
2022-10-21T00:54:24.899Z,24.33
2022-10-21T00:56:58.867Z,27.95
2022-10-21T00:59:29.557Z,18.85
2022-10-21T01:01:58.969Z,19.95
2022-10-21T01:04:27.915Z,23.75
2022-10-21T01:06:57.232Z,20.95
2022-10-21T01:09:26.485Z,20.23
2022-10-21T01:11:57.028Z,29.30
2022-10-21T01:14:34.248Z,23.92
2022-10-21T01:17:20.478Z,33.10
2022-10-21T01:20:14.742Z,31.55
2022-10-21T01:23:02.033Z,32.53
2022-10-21T01:25:42.091Z,33.15
2022-10-21T01:28:18.963Z,36.25
2022-10-21T01:30:53.519Z,31.88
2022-10-21T01:33:38.940Z,33.58
2022-10-21T01:36:12.525Z,34.97
2022-10-21T01:38:46.283Z,35.20
2022-10-21T01:41:18.194Z,40.45
2022-10-21T01:43:49.783Z,35.80
2022-10-21T01:46:24.808Z,25.85
2022-10-21T01:48:56.311Z,25.50
2022-10-21T01:54:02.266Z,28.77
2022-10-21T01:56:32.463Z,23.77
2022-10-21T01:59:03.317Z,29.55
2022-10-21T02:01:34.568Z,31.55
2022-10-21T02:04:05.140Z,31.77
2022-10-21T02:06:34.228Z,33.00
2022-10-21T02:09:03.388Z,34.10
2022-10-21T02:11:34.686Z,33.38
2022-10-21T02:14:05.107Z,34.88
2022-10-21T02:16:37.596Z,37.40
2022-10-21T02:19:07.859Z,37.00
2022-10-21T02:21:38.608Z,31.73
2022-10-21T02:24:08.909Z,34.88
2022-10-21T02:26:40.759Z,37.85
2022-10-21T02:29:10.003Z,28.55
2022-10-21T02:31:46.089Z,27.65
2022-10-21T02:34:19.938Z,24.60
2022-10-21T02:36:53.147Z,32.00
2022-10-21T02:39:25.696Z,29.40
2022-10-21T02:41:56.235Z,31.48
2022-10-21T02:44:25.429Z,27.95
2022-10-21T02:46:55.804Z,29.92
2022-10-21T02:49:25.173Z,30.67
2022-10-21T02:51:54.408Z,29.67
2022-10-21T02:54:23.749Z,27.65
2022-10-21T02:56:52.642Z,31.48
2022-10-21T02:59:21.661Z,30.55
2022-10-21T03:01:51.158Z,40.30
2022-10-21T03:04:21.563Z,54.15
2022-10-21T03:06:50.719Z,69.68
2022-10-21T03:09:19.852Z,78.10
2022-10-21T03:11:51.204Z,71.80
2022-10-21T03:14:23.791Z,74.47
2022-10-21T03:16:52.708Z,73.75
2022-10-21T03:19:23.678Z,73.43
2022-10-21T03:21:52.758Z,73.53
2022-10-21T03:24:28.580Z,59.60
2022-10-21T03:26:58.209Z,59.58
2022-10-21T03:29:27.214Z,60.92
2022-10-21T03:31:56.249Z,57.70
2022-10-21T03:34:26.750Z,56.97
2022-10-21T03:36:55.669Z,56.25
2022-10-21T03:39:24.564Z,63.70
2022-10-21T03:41:53.544Z,66.03
2022-10-21T03:44:24.757Z,65.38
2022-10-21T03:46:53.856Z,53.43
2022-10-21T03:49:23.545Z,60.70
2022-10-21T03:51:53.948Z,51.78
2022-10-21T03:54:22.924Z,58.55
2022-10-21T03:56:52.092Z,56.90
2022-10-21T03:59:24.098Z,56.13
2022-10-21T04:01:53.756Z,52.53
2022-10-21T04:04:23.172Z,52.35
2022-10-21T04:06:52.326Z,50.85
2022-10-21T04:09:22.836Z,51.88
2022-10-21T04:11:51.969Z,53.00
2022-10-21T04:14:21.133Z,49.28
2022-10-21T04:17:02.046Z,53.08
2022-10-21T04:19:32.475Z,40.75
2022-10-21T04:22:02.760Z,57.08
2022-10-21T04:24:36.253Z,50.67
2022-10-21T04:27:05.535Z,48.88
2022-10-21T04:29:36.067Z,51.28
2022-10-21T04:32:05.632Z,60.25
2022-10-21T04:34:40.342Z,50.35
2022-10-21T04:37:10.451Z,56.25
2022-10-21T04:39:41.153Z,50.70
2022-10-21T04:42:10.625Z,53.33
2022-10-21T04:44:40.709Z,45.63
2022-10-21T04:47:13.500Z,57.20
2022-10-21T04:49:42.919Z,53.10
2022-10-21T04:52:12.305Z,53.90
2022-10-21T04:54:45.081Z,54.00
2022-10-21T04:57:18.140Z,62.33
2022-10-21T04:59:47.774Z,52.45
2022-10-21T05:02:26.206Z,57.47
2022-10-21T05:04:56.057Z,55.88
2022-10-21T05:07:25.715Z,55.70
2022-10-21T05:10:07.138Z,56.53
2022-10-21T05:12:37.102Z,45.85
2022-10-21T05:15:07.039Z,55.55
2022-10-21T05:17:37.168Z,59.22
2022-10-21T05:20:07.586Z,57.50
2022-10-21T05:22:38.859Z,56.00
2022-10-21T05:25:12.343Z,48.00
2022-10-21T05:27:41.522Z,50.40
2022-10-21T05:30:11.400Z,47.38
2022-10-21T05:32:41.852Z,52.90
2022-10-21T05:35:13.364Z,50.40
2022-10-21T05:37:42.884Z,53.08
2022-10-21T05:40:20.518Z,50.92
2022-10-21T05:42:51.334Z,50.72
2022-10-21T05:45:25.770Z,48.85
2022-10-21T05:47:56.806Z,53.38
2022-10-21T05:50:39.420Z,52.17
2022-10-21T05:53:14.754Z,49.08
2022-10-21T05:55:45.472Z,52.50
2022-10-21T05:58:14.605Z,42.25
2022-10-21T06:00:44.582Z,45.88
2022-10-21T06:03:14.208Z,54.67
2022-10-21T06:05:43.423Z,50.97
2022-10-21T06:08:13.326Z,44.90
2022-10-21T06:10:42.858Z,47.05
2022-10-21T06:13:13.469Z,43.00
2022-10-21T06:15:48.796Z,46.50
2022-10-21T06:18:20.908Z,39.85
2022-10-21T06:20:55.412Z,47.88
2022-10-21T06:23:42.889Z,38.88
2022-10-21T06:26:17.195Z,43.88
2022-10-21T06:28:55.971Z,40.13
2022-10-21T06:31:25.783Z,35.03
2022-10-21T06:33:55.676Z,46.60
2022-10-21T06:36:25.107Z,40.78
2022-10-21T06:38:56.283Z,40.72
2022-10-21T06:41:30.303Z,33.28
2022-10-21T06:44:05.704Z,35.05
2022-10-21T06:49:04.139Z,34.03
2022-10-21T06:51:36.240Z,42.38
2022-10-21T06:56:38.834Z,37.45
2022-10-21T06:59:15.030Z,35.67
2022-10-21T07:02:01.139Z,42.97
2022-10-21T07:04:31.328Z,37.90
2022-10-21T07:07:00.824Z,36.50
2022-10-21T07:09:30.830Z,34.50
2022-10-21T07:12:00.194Z,35.47
2022-10-21T07:14:31.050Z,40.97
2022-10-21T07:17:08.552Z,34.63
2022-10-21T07:19:39.680Z,33.88
2022-10-21T07:22:09.935Z,38.57
2022-10-21T07:24:41.638Z,27.77
2022-10-21T07:27:17.464Z,27.48
2022-10-21T07:29:54.000Z,28.63
2022-10-21T07:32:23.366Z,29.20
2022-10-21T07:34:54.939Z,32.92
2022-10-21T07:37:24.277Z,30.77
2022-10-21T07:39:58.597Z,31.05
2022-10-21T07:42:30.895Z,31.40
2022-10-21T07:45:05.610Z,29.48
2022-10-21T07:47:35.103Z,26.15
2022-10-21T07:50:05.396Z,27.00
2022-10-21T07:52:51.938Z,22.63
2022-10-21T07:55:37.711Z,32.88
2022-10-21T07:58:07.297Z,28.17
2022-10-21T08:00:38.386Z,32.30
2022-10-21T08:03:08.099Z,26.40
2022-10-21T08:05:41.874Z,29.23
2022-10-21T08:08:14.243Z,24.05
2022-10-21T08:10:47.065Z,21.98
2022-10-21T08:13:18.037Z,28.08
2022-10-21T08:15:51.265Z,49.95
2022-10-21T08:18:23.369Z,30.85
2022-10-21T08:23:26.563Z,28.33
2022-10-21T08:25:56.820Z,25.63
2022-10-21T08:28:27.001Z,23.23
2022-10-21T08:31:04.149Z,22.30
2022-10-21T08:33:34.188Z,26.55
2022-10-21T08:36:07.053Z,22.90
2022-10-21T08:38:36.946Z,22.95
2022-10-21T08:41:12.539Z,20.45
2022-10-21T08:43:45.334Z,19.70
2022-10-21T08:46:19.332Z,25.52
2022-10-21T08:48:51.125Z,13.75
2022-10-21T08:53:50.824Z,22.13
2022-10-21T08:56:20.291Z,19.45
2022-10-21T08:58:51.345Z,20.98
2022-10-21T09:01:25.873Z,16.85
2022-10-21T09:03:58.837Z,15.32
2022-10-21T09:06:30.082Z,15.38
2022-10-21T09:09:03.716Z,23.23
2022-10-21T09:11:41.179Z,21.42
2022-10-21T09:14:17.651Z,17.08
2022-10-21T09:16:52.745Z,18.20
2022-10-21T09:19:29.396Z,15.90
2022-10-21T09:22:22.879Z,23.70
2022-10-21T09:24:54.472Z,18.42
2022-10-21T09:27:32.265Z,21.67
2022-10-21T09:30:08.466Z,23.75
2022-10-21T09:32:40.376Z,18.65
2022-10-21T09:35:16.835Z,19.50
2022-10-21T09:37:47.542Z,12.38
2022-10-21T09:40:18.215Z,24.10
2022-10-21T09:42:52.812Z,20.15
2022-10-21T09:45:24.910Z,20.25
2022-10-21T09:47:57.776Z,13.38
2022-10-21T09:50:27.858Z,18.35
2022-10-21T09:53:00.183Z,21.85
2022-10-21T09:55:31.203Z,25.95
2022-10-21T09:58:01.689Z,22.38
2022-10-21T10:00:45.273Z,15.10
2022-10-21T10:03:30.791Z,25.65
2022-10-21T10:05:59.974Z,19.88
2022-10-21T10:08:34.247Z,24.15
2022-10-21T10:11:12.981Z,19.27
2022-10-21T10:13:43.387Z,20.00
2022-10-21T10:16:18.535Z,24.88
2022-10-21T10:18:49.144Z,23.80
2022-10-21T10:21:18.964Z,18.17
2022-10-21T10:23:49.394Z,23.67
2022-10-21T10:26:24.012Z,21.90
2022-10-21T10:28:54.718Z,20.65
2022-10-21T10:31:29.720Z,23.15
2022-10-21T10:34:01.581Z,20.55
2022-10-21T10:36:32.822Z,20.85
2022-10-21T10:39:02.834Z,23.03
2022-10-21T10:41:38.269Z,22.27
2022-10-21T10:44:14.236Z,45.80
2022-10-21T10:46:44.837Z,21.48
2022-10-21T10:49:23.758Z,22.30
2022-10-21T10:52:05.859Z,17.85
2022-10-21T10:54:35.878Z,18.70
2022-10-21T10:57:07.297Z,18.83
2022-10-21T10:59:42.791Z,23.17
2022-10-21T11:02:29.574Z,32.35
2022-10-21T11:05:22.120Z,19.48
2022-10-21T11:07:55.549Z,20.95
2022-10-21T11:10:35.363Z,20.27
2022-10-21T11:13:11.641Z,23.23
2022-10-21T11:15:58.794Z,16.67
2022-10-21T11:18:40.683Z,24.67
2022-10-21T11:21:24.093Z,22.92
2022-10-21T11:24:11.081Z,25.95
2022-10-21T11:26:53.326Z,22.20
2022-10-21T11:32:11.109Z,28.70
2022-10-21T11:34:48.501Z,21.52
2022-10-21T11:37:23.293Z,23.08
2022-10-21T11:39:56.581Z,23.70
2022-10-21T11:42:31.649Z,22.75
2022-10-21T11:45:17.064Z,22.10
2022-10-21T11:47:50.265Z,24.38
2022-10-21T11:50:22.624Z,30.42
2022-10-21T11:53:02.733Z,15.57
2022-10-21T11:55:38.897Z,21.75
2022-10-21T11:58:16.479Z,23.55
2022-10-21T12:00:51.027Z,19.70
2022-10-21T12:03:36.170Z,23.08
2022-10-21T12:06:13.133Z,23.15
2022-10-21T12:08:50.831Z,22.73
2022-10-21T12:11:26.893Z,22.38
2022-10-21T12:13:57.870Z,23.23
2022-10-21T12:16:29.436Z,37.92
2022-10-21T12:19:01.753Z,30.20
2022-10-21T12:21:32.050Z,25.95
2022-10-21T12:24:09.215Z,21.17
2022-10-21T12:26:43.329Z,27.38
2022-10-21T12:29:16.843Z,22.17
2022-10-21T12:31:50.854Z,17.20
2022-10-21T12:34:20.627Z,27.35
2022-10-21T12:36:54.412Z,22.58
2022-10-21T12:39:44.762Z,24.63
2022-10-21T12:42:16.917Z,23.52
2022-10-21T12:47:27.221Z,25.58
2022-10-21T12:50:19.842Z,24.87
2022-10-21T12:53:08.545Z,24.50
2022-10-21T12:55:41.244Z,23.05
2022-10-21T12:58:22.375Z,26.48
2022-10-21T13:00:53.938Z,25.15
2022-10-21T13:03:24.877Z,29.33
2022-10-21T13:06:03.315Z,21.23
2022-10-21T13:08:40.014Z,19.23
2022-10-21T13:11:24.180Z,20.88
2022-10-21T13:14:20.538Z,22.80
2022-10-21T13:16:53.734Z,20.80
2022-10-21T13:19:37.520Z,25.30
2022-10-21T13:22:13.134Z,24.23
2022-10-21T13:24:44.865Z,27.23
2022-10-21T13:27:28.807Z,21.25
2022-10-21T13:30:07.331Z,26.33
2022-10-21T13:32:38.851Z,21.77
2022-10-21T13:35:27.625Z,20.05
2022-10-21T13:37:59.489Z,25.20
2022-10-21T13:40:33.555Z,32.42
2022-10-21T13:43:08.396Z,28.00
2022-10-21T13:45:48.837Z,25.48
2022-10-21T13:48:27.395Z,23.33
2022-10-21T13:51:00.714Z,21.50
2022-10-21T13:53:36.002Z,33.33
2022-10-21T13:56:06.236Z,26.02
2022-10-21T13:58:41.350Z,26.17
2022-10-21T14:01:16.880Z,34.42
2022-10-21T14:06:30.910Z,28.35
2022-10-21T14:09:05.505Z,32.53
2022-10-21T14:11:37.516Z,24.85
2022-10-21T14:14:11.514Z,25.60
2022-10-21T14:16:45.432Z,29.83
2022-10-21T14:19:20.352Z,23.98
2022-10-21T14:21:53.993Z,22.35
2022-10-21T14:24:28.984Z,20.58
2022-10-21T14:27:00.689Z,24.65
2022-10-21T14:29:35.629Z,18.17
2022-10-21T14:32:06.147Z,23.40
2022-10-21T14:34:57.785Z,24.30
2022-10-21T14:37:28.358Z,24.80
2022-10-21T14:40:11.106Z,24.63
2022-10-21T14:42:50.969Z,24.10
2022-10-21T14:45:27.016Z,18.58
2022-10-21T14:48:01.904Z,21.52
2022-10-21T14:50:31.113Z,27.30
2022-10-21T14:53:02.202Z,26.85
2022-10-21T14:55:31.672Z,33.17
2022-10-21T14:58:13.088Z,25.98
2022-10-21T15:00:49.272Z,24.80
2022-10-21T15:03:37.582Z,22.48
2022-10-21T15:06:11.896Z,23.98
2022-10-21T15:08:48.593Z,20.42
2022-10-21T15:11:21.038Z,23.63
2022-10-21T15:14:01.149Z,26.30
2022-10-21T15:16:31.499Z,22.85
2022-10-21T15:19:01.008Z,24.35
2022-10-21T15:21:36.838Z,25.33
2022-10-21T15:24:08.443Z,30.48
2022-10-21T15:26:39.233Z,23.17
2022-10-21T15:29:15.245Z,21.75
2022-10-21T15:31:44.897Z,26.88
2022-10-21T15:34:15.403Z,23.23
2022-10-21T15:36:45.339Z,26.90
2022-10-21T15:39:15.920Z,20.65
2022-10-21T15:41:45.367Z,20.92
2022-10-21T15:44:22.240Z,27.83
2022-10-21T15:46:57.988Z,21.30
2022-10-21T15:49:28.445Z,21.90
2022-10-21T15:51:57.898Z,25.00
2022-10-21T15:54:28.675Z,20.55
2022-10-21T15:57:00.211Z,23.90
2022-10-21T15:59:32.193Z,23.80
2022-10-21T16:04:39.793Z,22.67
2022-10-21T16:07:19.220Z,23.23
2022-10-21T16:09:50.136Z,18.80
2022-10-21T16:12:21.791Z,25.25
2022-10-21T16:14:51.811Z,22.77
2022-10-21T16:17:21.484Z,24.42
2022-10-21T16:19:50.938Z,27.73
2022-10-21T16:22:21.776Z,23.95
2022-10-21T16:24:52.572Z,23.55
2022-10-21T16:27:31.217Z,21.42
2022-10-21T16:30:16.207Z,21.92
2022-10-21T16:32:48.697Z,24.17
2022-10-21T16:37:51.733Z,26.95
2022-10-21T16:40:24.218Z,26.90
2022-10-21T16:45:25.621Z,27.92
2022-10-21T16:47:56.823Z,35.75
2022-10-21T16:50:28.224Z,34.42
2022-10-21T16:53:01.943Z,33.65
2022-10-21T16:55:33.409Z,30.77
2022-10-21T17:00:38.627Z,30.08
2022-10-21T17:03:12.136Z,33.55
2022-10-21T17:05:42.062Z,34.00
2022-10-21T17:08:11.752Z,59.25
2022-10-21T17:10:45.592Z,29.17
2022-10-21T17:13:15.331Z,31.92
2022-10-21T17:15:44.592Z,31.35
2022-10-21T17:18:17.423Z,26.80
2022-10-21T17:20:46.813Z,39.58
2022-10-21T17:23:16.062Z,31.65
2022-10-21T17:25:49.319Z,29.10
2022-10-21T17:28:18.627Z,28.38
2022-10-21T17:30:48.239Z,35.40
2022-10-21T17:33:19.020Z,31.92
2022-10-21T17:35:48.904Z,35.38
2022-10-21T17:38:20.790Z,30.33
2022-10-21T17:40:51.624Z,29.15
2022-10-21T17:43:22.563Z,32.92
2022-10-21T17:45:52.404Z,28.15
2022-10-21T17:48:22.417Z,32.90
2022-10-21T17:50:56.013Z,26.27
2022-10-21T17:53:35.082Z,30.92
2022-10-21T17:56:07.071Z,38.53
2022-10-21T17:58:38.125Z,34.17
2022-10-21T18:01:13.499Z,32.55
2022-10-21T18:03:45.568Z,29.85
2022-10-21T18:06:18.766Z,30.42
2022-10-21T18:08:49.606Z,35.25
2022-10-21T18:11:21.570Z,31.92
2022-10-21T18:16:25.218Z,32.33
2022-10-21T18:19:01.781Z,40.85
2022-10-21T18:21:33.777Z,31.23
2022-10-21T18:24:10.040Z,29.45
2022-10-21T18:26:49.935Z,36.92
2022-10-21T18:29:25.311Z,37.17
2022-10-21T18:31:55.001Z,35.13
2022-10-21T18:34:25.412Z,33.33
2022-10-21T18:36:59.753Z,35.25
2022-10-21T18:39:35.751Z,39.85
2022-10-21T18:42:10.330Z,39.05
2022-10-21T18:44:45.795Z,35.58
2022-10-21T18:49:50.000Z,36.00
2022-10-21T18:52:19.486Z,31.17
2022-10-21T18:55:12.816Z,36.03
2022-10-21T18:57:54.529Z,36.28
2022-10-21T19:00:54.308Z,32.65
2022-10-21T19:03:40.828Z,37.47
2022-10-21T19:06:17.034Z,39.20
2022-10-21T19:08:49.867Z,28.90
2022-10-21T19:11:20.308Z,30.15
2022-10-21T19:13:51.114Z,28.88
2022-10-21T19:16:20.771Z,32.63
2022-10-21T19:18:51.285Z,33.15
2022-10-21T19:21:22.299Z,33.33
2022-10-21T19:23:52.720Z,32.45
2022-10-21T19:26:23.248Z,29.33
2022-10-21T19:28:54.172Z,25.52
2022-10-21T19:31:23.491Z,36.05
2022-10-21T19:33:54.246Z,29.58
2022-10-21T19:36:23.998Z,35.88
2022-10-21T19:38:53.275Z,29.30
2022-10-21T19:41:23.903Z,41.17
2022-10-21T19:43:58.751Z,30.17
2022-10-21T19:46:28.851Z,30.85
2022-10-21T19:48:58.220Z,31.88
2022-10-21T19:51:27.666Z,33.75
2022-10-21T19:53:57.105Z,33.33
2022-10-21T19:56:30.795Z,28.42
2022-10-21T19:59:03.307Z,32.72
2022-10-21T20:04:03.250Z,28.45
2022-10-21T20:06:33.069Z,26.60
2022-10-21T20:09:03.593Z,27.80
2022-10-21T20:11:32.805Z,29.77
2022-10-21T20:14:04.378Z,32.85
2022-10-21T20:16:34.957Z,29.35
2022-10-21T20:19:05.578Z,30.40
2022-10-21T20:21:35.767Z,27.27
2022-10-21T20:24:05.095Z,29.20
2022-10-21T20:26:34.768Z,26.92
2022-10-21T20:29:05.680Z,26.02
2022-10-21T20:31:35.617Z,31.52
2022-10-21T20:34:05.033Z,20.92
2022-10-21T20:36:34.875Z,23.83
2022-10-21T20:39:21.542Z,26.25
2022-10-21T20:41:56.129Z,25.88
2022-10-21T20:44:27.204Z,34.17
2022-10-21T20:46:56.621Z,33.17
2022-10-21T20:49:26.012Z,31.25
2022-10-21T20:51:55.655Z,22.33
2022-10-21T20:54:29.675Z,28.60
2022-10-21T20:57:00.048Z,28.35
2022-10-21T20:59:30.795Z,32.72
2022-10-21T21:02:00.390Z,24.55
2022-10-21T21:04:32.461Z,34.25
2022-10-21T21:07:04.110Z,37.72
2022-10-21T21:09:57.832Z,27.38
2022-10-21T21:12:30.726Z,27.73
2022-10-21T21:15:02.336Z,30.40
2022-10-21T21:17:33.134Z,24.25
2022-10-21T21:20:02.641Z,33.50
2022-10-21T21:22:32.062Z,29.90
2022-10-21T21:25:01.676Z,34.22
2022-10-21T21:27:32.219Z,28.63
2022-10-21T21:32:35.991Z,23.65
2022-10-21T21:35:06.272Z,25.85
2022-10-21T21:37:36.670Z,26.65
2022-10-21T21:40:06.570Z,27.95
2022-10-21T21:42:36.208Z,37.58
2022-10-21T21:45:09.706Z,34.40
2022-10-21T21:47:40.080Z,28.73
2022-10-21T21:50:13.619Z,28.65
2022-10-21T21:52:43.882Z,32.67
2022-10-21T21:55:14.883Z,37.28
2022-10-21T21:57:44.375Z,33.33
2022-10-21T22:00:16.165Z,33.03
2022-10-21T22:02:48.562Z,31.80
2022-10-21T22:05:26.139Z,32.30
2022-10-21T22:07:58.860Z,38.58
2022-10-21T22:10:31.677Z,33.33
2022-10-21T22:13:03.087Z,40.58
2022-10-21T22:15:53.620Z,29.88
2022-10-21T22:18:24.060Z,35.10
2022-10-21T22:20:59.649Z,33.17
2022-10-21T22:23:29.198Z,24.17
2022-10-21T22:26:04.910Z,34.83
2022-10-21T22:28:34.640Z,32.83
2022-10-21T22:31:06.701Z,29.05
2022-10-21T22:33:36.806Z,34.83
2022-10-21T22:36:07.278Z,35.03
2022-10-21T22:38:37.615Z,28.90
2022-10-21T22:41:09.931Z,29.40
2022-10-21T22:43:43.127Z,36.20
2022-10-21T22:46:29.302Z,28.73
2022-10-21T22:49:04.940Z,38.22
2022-10-21T22:51:34.519Z,33.70
2022-10-21T22:54:03.729Z,35.28
2022-10-21T22:56:34.333Z,31.27
2022-10-21T22:59:03.645Z,37.08
2022-10-21T23:01:35.311Z,27.48
2022-10-21T23:04:04.672Z,33.13
2022-10-21T23:06:34.184Z,38.85
2022-10-21T23:09:03.969Z,35.15
2022-10-21T23:11:33.202Z,26.63
2022-10-21T23:14:07.905Z,36.80
2022-10-21T23:16:42.787Z,31.83
2022-10-21T23:19:18.030Z,30.45
2022-10-21T23:21:50.010Z,35.22
2022-10-21T23:24:21.453Z,26.35
2022-10-21T23:26:51.133Z,37.63
2022-10-21T23:29:20.358Z,32.47
2022-10-21T23:31:51.405Z,33.22
2022-10-21T23:34:20.642Z,29.55
2022-10-21T23:36:49.803Z,27.70
2022-10-21T23:39:19.805Z,27.35
2022-10-21T23:41:49.066Z,25.45
2022-10-21T23:44:19.209Z,29.58
2022-10-21T23:46:48.358Z,31.40
2022-10-21T23:49:19.010Z,26.98
2022-10-21T23:51:54.659Z,24.95
2022-10-21T23:54:24.257Z,27.27
2022-10-21T23:56:53.748Z,36.97
2022-10-21T23:59:23.173Z,25.58
